AXB716 OTHH-OOMS
Flight info
| Callsign | AXB716 |
|---|---|
| Flight time | N/A |
| Altitude | 33000 |
| Route | DATR1W ALB LOPIL LAKLU LAKL1T |
| Aircraft | B738/M-VGDW/C |
Departure
| Time | 2026-02-20 09:56 |
|---|---|
| Airport | Hamad International Airport (OTHH) |
Arrival
| Time | N/A |
|---|---|
| Airport | Muscat International Airport (OOMS) |
| Time | Latitude | Longitude | Altitude | Speed | Heading |
|---|---|---|---|---|---|
| 2026-02-20 09:33 | 25.27220 | 51.61232 | 9 ft | 0 kts | 114° |
| 2026-02-20 09:45 | 25.27228 | 51.61213 | 9 ft | 3 kts | 114° |
| 2026-02-20 09:45 | 25.27235 | 51.61195 | 10 ft | 2 kts | 117° |
| 2026-02-20 09:46 | 25.27241 | 51.61185 | 10 ft | 1 kts | 132° |
| 2026-02-20 09:46 | 25.27248 | 51.61177 | 11 ft | 1 kts | 150° |
| 2026-02-20 09:46 | 25.27255 | 51.61174 | 11 ft | 1 kts | 164° |
| 2026-02-20 09:46 | 25.27262 | 51.61172 | 10 ft | 1 kts | 177° |
| 2026-02-20 09:47 | 25.27269 | 51.61173 | 10 ft | 1 kts | 191° |
| 2026-02-20 09:47 | 25.27277 | 51.61175 | 10 ft | 1 kts | 201° |
| 2026-02-20 09:47 | 25.27280 | 51.61176 | 10 ft | 0 kts | 204° |
| 2026-02-20 09:48 | 25.27279 | 51.61163 | 10 ft | 5 kts | 281° |
| 2026-02-20 09:48 | 25.27275 | 51.61071 | 11 ft | 19 kts | 249° |
| 2026-02-20 09:48 | 25.27212 | 51.60887 | 15 ft | 31 kts | 250° |
| 2026-02-20 09:49 | 25.27123 | 51.60650 | 19 ft | 32 kts | 247° |
| 2026-02-20 09:49 | 25.27044 | 51.60429 | 21 ft | 29 kts | 245° |
| 2026-02-20 09:49 | 25.26986 | 51.60277 | 21 ft | 18 kts | 250° |
| 2026-02-20 09:49 | 25.26934 | 51.60156 | 21 ft | 16 kts | 216° |
| 2026-02-20 09:50 | 25.26828 | 51.60175 | 21 ft | 15 kts | 160° |
| 2026-02-20 09:50 | 25.26729 | 51.60220 | 19 ft | 15 kts | 157° |
| 2026-02-20 09:50 | 25.26623 | 51.60266 | 18 ft | 16 kts | 158° |
| 2026-02-20 09:50 | 25.26518 | 51.60320 | 18 ft | 16 kts | 130° |
| 2026-02-20 09:51 | 25.26487 | 51.60429 | 18 ft | 16 kts | 147° |
| 2026-02-20 09:51 | 25.26380 | 51.60480 | 16 ft | 17 kts | 159° |
| 2026-02-20 09:51 | 25.26260 | 51.60533 | 14 ft | 19 kts | 158° |
| 2026-02-20 09:51 | 25.26132 | 51.60590 | 13 ft | 20 kts | 159° |
| 2026-02-20 09:52 | 25.25996 | 51.60649 | 12 ft | 21 kts | 159° |
| 2026-02-20 09:52 | 25.25854 | 51.60711 | 12 ft | 22 kts | 158° |
| 2026-02-20 09:52 | 25.25706 | 51.60778 | 10 ft | 22 kts | 159° |
| 2026-02-20 09:52 | 25.25608 | 51.60699 | 11 ft | 18 kts | 248° |
| 2026-02-20 09:53 | 25.25598 | 51.60671 | 11 ft | 0 kts | 248° |
| 2026-02-20 09:53 | 25.25594 | 51.60659 | 11 ft | 7 kts | 248° |
| 2026-02-20 09:54 | 25.25602 | 51.60535 | 14 ft | 24 kts | 302° |
| 2026-02-20 09:54 | 25.25669 | 51.60483 | 15 ft | 0 kts | 339° |
| 2026-02-20 09:54 | 25.25676 | 51.60480 | 15 ft | 7 kts | 339° |
| 2026-02-20 09:54 | 25.25755 | 51.60446 | 16 ft | 14 kts | 338° |
| 2026-02-20 09:55 | 25.25834 | 51.60411 | 17 ft | 9 kts | 338° |
| 2026-02-20 09:55 | 25.25986 | 51.60344 | 15 ft | 51 kts | 339° |
| 2026-02-20 09:55 | 25.26572 | 51.60086 | 18 ft | 126 kts | 339° |
| 2026-02-20 09:55 | 25.27595 | 51.59632 | 22 ft | 186 kts | 339° |
| 2026-02-20 09:56 | 25.28927 | 51.59038 | 97 ft | 218 kts | 340° |
| 2026-02-20 09:56 | 25.30402 | 51.58458 | 717 ft | 224 kts | 341° |
| 2026-02-20 09:56 | 25.31760 | 51.57881 | 1846 ft | 208 kts | 341° |
| 2026-02-20 09:56 | 25.33149 | 51.57280 | 2430 ft | 222 kts | 341° |
| 2026-02-20 09:57 | 25.34590 | 51.56660 | 3211 ft | 225 kts | 341° |
| 2026-02-20 09:57 | 25.36042 | 51.56035 | 3997 ft | 230 kts | 341° |
| 2026-02-20 09:57 | 25.37566 | 51.55379 | 4118 ft | 235 kts | 341° |
| 2026-02-20 09:57 | 25.39083 | 51.54720 | 4128 ft | 230 kts | 341° |
| 2026-02-20 09:58 | 25.40627 | 51.54055 | 4494 ft | 249 kts | 341° |
| 2026-02-20 09:58 | 25.42108 | 51.53374 | 5649 ft | 228 kts | 339° |
| 2026-02-20 09:58 | 25.43633 | 51.52637 | 5606 ft | 242 kts | 339° |
| 2026-02-20 09:58 | 25.45203 | 51.51856 | 5645 ft | 254 kts | 332° |
| 2026-02-20 09:59 | 25.46683 | 51.50796 | 5650 ft | 253 kts | 329° |
| 2026-02-20 09:59 | 25.48122 | 51.49596 | 5798 ft | 274 kts | 313° |
| 2026-02-20 09:59 | 25.49022 | 51.47828 | 7031 ft | 257 kts | 292° |
| 2026-02-20 09:59 | 25.49350 | 51.45832 | 7105 ft | 271 kts | 270° |
| 2026-02-20 10:00 | 25.49102 | 51.43772 | 7148 ft | 273 kts | 263° |
| 2026-02-20 10:00 | 25.48801 | 51.41688 | 7137 ft | 271 kts | 263° |
| 2026-02-20 10:00 | 25.48504 | 51.39644 | 7141 ft | 271 kts | 263° |
| 2026-02-20 10:00 | 25.48202 | 51.37584 | 7141 ft | 271 kts | 263° |
| 2026-02-20 10:01 | 25.47895 | 51.35516 | 7149 ft | 271 kts | 263° |
| 2026-02-20 10:01 | 25.47588 | 51.33461 | 7115 ft | 272 kts | 259° |
| 2026-02-20 10:01 | 25.47101 | 51.31368 | 7750 ft | 285 kts | 256° |
| 2026-02-20 10:01 | 25.46570 | 51.29394 | 9006 ft | 270 kts | 249° |
| 2026-02-20 10:02 | 25.45543 | 51.27578 | 9536 ft | 291 kts | 227° |
| 2026-02-20 10:02 | 25.43949 | 51.26207 | 10300 ft | 293 kts | 212° |
| 2026-02-20 10:02 | 25.42237 | 51.25067 | 11374 ft | 284 kts | 207° |
| 2026-02-20 10:02 | 25.40390 | 51.24198 | 11930 ft | 296 kts | 197° |
| 2026-02-20 10:03 | 25.38414 | 51.23660 | 12095 ft | 291 kts | 187° |
| 2026-02-20 10:03 | 25.36408 | 51.23497 | 12164 ft | 291 kts | 178° |
| 2026-02-20 10:03 | 25.34394 | 51.23711 | 12161 ft | 291 kts | 167° |
| 2026-02-20 10:03 | 25.32415 | 51.24260 | 12166 ft | 303 kts | 162° |
| 2026-02-20 10:04 | 25.30288 | 51.24921 | 12152 ft | 319 kts | 162° |
| 2026-02-20 10:04 | 25.28163 | 51.25581 | 12154 ft | 316 kts | 162° |
| 2026-02-20 10:04 | 25.26063 | 51.26237 | 12166 ft | 314 kts | 162° |
| 2026-02-20 10:04 | 25.23943 | 51.26896 | 12156 ft | 313 kts | 162° |
| 2026-02-20 10:05 | 25.21867 | 51.27539 | 12146 ft | 313 kts | 161° |
| 2026-02-20 10:05 | 25.19807 | 51.28315 | 12160 ft | 311 kts | 159° |
| 2026-02-20 10:05 | 25.17785 | 51.29106 | 12152 ft | 297 kts | 158° |
| 2026-02-20 10:05 | 25.15821 | 51.29894 | 12281 ft | 313 kts | 157° |
| 2026-02-20 10:06 | 25.13812 | 51.30718 | 13399 ft | 303 kts | 158° |
| 2026-02-20 10:06 | 25.11886 | 51.31536 | 14270 ft | 302 kts | 158° |
| 2026-02-20 10:06 | 25.09849 | 51.32434 | 14707 ft | 318 kts | 157° |
| 2026-02-20 10:06 | 25.07838 | 51.33353 | 15604 ft | 314 kts | 154° |
| 2026-02-20 10:07 | 25.05896 | 51.34529 | 15976 ft | 330 kts | 148° |
| 2026-02-20 10:07 | 25.03914 | 51.35910 | 16434 ft | 340 kts | 149° |
| 2026-02-20 10:07 | 25.01955 | 51.37215 | 17704 ft | 322 kts | 149° |
| 2026-02-20 10:07 | 25.00097 | 51.38493 | 18646 ft | 315 kts | 149° |
| 2026-02-20 10:08 | 24.98186 | 51.39819 | 18767 ft | 335 kts | 149° |
| 2026-02-20 10:08 | 24.96209 | 51.41190 | 19511 ft | 331 kts | 149° |
| 2026-02-20 10:08 | 24.94307 | 51.42532 | 20249 ft | 329 kts | 149° |
| 2026-02-20 10:08 | 24.92341 | 51.43931 | 20568 ft | 340 kts | 149° |
| 2026-02-20 10:09 | 24.90336 | 51.45326 | 21137 ft | 340 kts | 150° |
| 2026-02-20 10:09 | 24.88366 | 51.46690 | 21824 ft | 338 kts | 150° |
| 2026-02-20 10:09 | 24.86406 | 51.48064 | 22173 ft | 345 kts | 150° |
| 2026-02-20 10:09 | 24.84171 | 51.49639 | 22698 ft | 348 kts | 150° |
| 2026-02-20 10:10 | 24.81912 | 51.51253 | 23243 ft | 350 kts | 150° |
| 2026-02-20 10:10 | 24.79678 | 51.52844 | 23612 ft | 356 kts | 150° |
| 2026-02-20 10:10 | 24.77374 | 51.54455 | 24105 ft | 357 kts | 151° |
| 2026-02-20 10:10 | 24.75049 | 51.56078 | 24534 ft | 361 kts | 151° |
| 2026-02-20 10:11 | 24.72724 | 51.57717 | 24931 ft | 365 kts | 150° |
| 2026-02-20 10:11 | 24.70520 | 51.59549 | 25380 ft | 369 kts | 142° |
| 2026-02-20 10:11 | 24.68518 | 51.61792 | 25750 ft | 377 kts | 133° |
| 2026-02-20 10:11 | 24.66829 | 51.64324 | 26084 ft | 384 kts | 124° |
| 2026-02-20 10:12 | 24.65466 | 51.67115 | 26444 ft | 389 kts | 116° |
| 2026-02-20 10:12 | 24.64443 | 51.70147 | 26764 ft | 395 kts | 108° |
| 2026-02-20 10:12 | 24.63750 | 51.73329 | 27544 ft | 380 kts | 104° |
| 2026-02-20 10:12 | 24.63132 | 51.76439 | 28015 ft | 378 kts | 104° |
| 2026-02-20 10:13 | 24.62497 | 51.79647 | 28221 ft | 381 kts | 104° |
| 2026-02-20 10:13 | 24.61893 | 51.82732 | 28770 ft | 373 kts | 104° |
| 2026-02-20 10:13 | 24.61317 | 51.85692 | 28812 ft | 382 kts | 104° |
| 2026-02-20 10:13 | 24.60719 | 51.88756 | 29070 ft | 382 kts | 104° |
| 2026-02-20 10:14 | 24.60109 | 51.91904 | 29533 ft | 378 kts | 104° |
| 2026-02-20 10:14 | 24.58922 | 51.98130 | 29890 ft | 385 kts | 104° |
| 2026-02-20 10:14 | 24.58334 | 52.01255 | 30178 ft | 386 kts | 104° |
| 2026-02-20 10:15 | 24.57736 | 52.04393 | 30336 ft | 390 kts | 104° |
| 2026-02-20 10:15 | 24.57131 | 52.07579 | 30658 ft | 388 kts | 104° |
| 2026-02-20 10:15 | 24.56535 | 52.10731 | 30910 ft | 389 kts | 104° |
| 2026-02-20 10:15 | 24.55932 | 52.13921 | 31064 ft | 393 kts | 104° |
| 2026-02-20 10:16 | 24.55328 | 52.17123 | 31334 ft | 393 kts | 104° |
| 2026-02-20 10:16 | 24.54724 | 52.20340 | 31581 ft | 393 kts | 104° |
| 2026-02-20 10:16 | 24.54127 | 52.23551 | 31772 ft | 395 kts | 104° |
| 2026-02-20 10:16 | 24.53536 | 52.26756 | 32013 ft | 395 kts | 104° |
| 2026-02-20 10:17 | 24.52957 | 52.29942 | 32287 ft | 395 kts | 104° |
| 2026-02-20 10:17 | 24.52363 | 52.33210 | 32435 ft | 397 kts | 104° |
| 2026-02-20 10:17 | 24.51781 | 52.36423 | 32648 ft | 397 kts | 104° |
| 2026-02-20 10:17 | 24.51193 | 52.39659 | 32890 ft | 398 kts | 104° |
| 2026-02-20 10:18 | 24.50609 | 52.42880 | 32993 ft | 402 kts | 104° |
| 2026-02-20 10:18 | 24.50220 | 52.45012 | 33105 ft | 395 kts | 104° |
| 2026-02-20 10:18 | 24.49645 | 52.48193 | 33070 ft | 389 kts | 104° |
| 2026-02-20 10:19 | 24.48296 | 52.55581 | 33110 ft | 401 kts | 104° |
| 2026-02-20 10:19 | 24.47099 | 52.62103 | 33103 ft | 406 kts | 104° |
| 2026-02-20 10:20 | 24.45922 | 52.68607 | 33091 ft | 399 kts | 104° |
| 2026-02-20 10:20 | 24.44750 | 52.75093 | 33093 ft | 400 kts | 104° |
| 2026-02-20 10:21 | 24.43567 | 52.81582 | 33076 ft | 399 kts | 104° |
| 2026-02-20 10:21 | 24.42389 | 52.88001 | 33077 ft | 398 kts | 104° |
| 2026-02-20 10:22 | 24.41204 | 52.94468 | 33088 ft | 401 kts | 104° |
| 2026-02-20 10:22 | 24.40006 | 53.00978 | 33071 ft | 398 kts | 104° |
| 2026-02-20 10:23 | 24.38697 | 53.07511 | 33088 ft | 397 kts | 107° |
| 2026-02-20 10:23 | 24.37279 | 53.13796 | 33067 ft | 380 kts | 107° |
| 2026-02-20 10:24 | 24.35897 | 53.19976 | 33086 ft | 383 kts | 107° |
| 2026-02-20 10:24 | 24.34464 | 53.26295 | 33074 ft | 384 kts | 107° |
| 2026-02-20 10:25 | 24.33040 | 53.32547 | 33069 ft | 381 kts | 107° |
| 2026-02-20 10:25 | 24.31632 | 53.38732 | 33078 ft | 380 kts | 107° |
| 2026-02-20 10:26 | 24.30219 | 53.45004 | 33076 ft | 383 kts | 107° |
| 2026-02-20 10:26 | 24.28819 | 53.51243 | 33079 ft | 383 kts | 107° |
| 2026-02-20 10:27 | 24.27389 | 53.57564 | 33072 ft | 382 kts | 107° |
| 2026-02-20 10:27 | 24.25973 | 53.63792 | 33061 ft | 382 kts | 107° |
| 2026-02-20 10:28 | 24.24565 | 53.70043 | 33070 ft | 383 kts | 107° |
| 2026-02-20 10:28 | 24.23150 | 53.76298 | 33062 ft | 381 kts | 107° |
| 2026-02-20 10:29 | 24.21737 | 53.82544 | 33053 ft | 380 kts | 107° |
| 2026-02-20 10:29 | 24.20330 | 53.88777 | 33052 ft | 381 kts | 107° |
| 2026-02-20 10:30 | 24.18901 | 53.95088 | 33051 ft | 382 kts | 107° |
| 2026-02-20 10:30 | 24.17491 | 54.01350 | 33038 ft | 382 kts | 107° |
| 2026-02-20 10:31 | 24.16065 | 54.07648 | 33045 ft | 381 kts | 107° |
| 2026-02-20 10:31 | 24.14636 | 54.13926 | 33045 ft | 381 kts | 107° |
| 2026-02-20 10:32 | 24.13244 | 54.20056 | 33053 ft | 381 kts | 107° |
| 2026-02-20 10:32 | 24.11964 | 54.25653 | 33052 ft | 380 kts | 107° |
| 2026-02-20 10:33 | 24.10694 | 54.31244 | 33064 ft | 381 kts | 107° |
| 2026-02-20 10:33 | 24.09414 | 54.36894 | 33076 ft | 382 kts | 107° |
| 2026-02-20 10:34 | 24.08126 | 54.42521 | 33060 ft | 381 kts | 107° |
| 2026-02-20 10:34 | 24.06853 | 54.48143 | 33080 ft | 383 kts | 107° |
| 2026-02-20 10:35 | 24.05784 | 54.52831 | 33077 ft | 383 kts | 107° |
| 2026-02-20 10:35 | 24.04284 | 54.59378 | 33075 ft | 381 kts | 107° |
| 2026-02-20 10:36 | 24.02990 | 54.64982 | 33065 ft | 381 kts | 107° |
| 2026-02-20 10:36 | 24.01698 | 54.70590 | 33061 ft | 379 kts | 107° |
| 2026-02-20 10:37 | 24.00415 | 54.76188 | 33063 ft | 380 kts | 107° |
| 2026-02-20 10:37 | 23.99121 | 54.81780 | 33059 ft | 382 kts | 107° |
| 2026-02-20 10:38 | 23.97826 | 54.87427 | 33063 ft | 382 kts | 107° |
| 2026-02-20 10:38 | 23.96540 | 54.93034 | 33065 ft | 382 kts | 107° |
| 2026-02-20 10:39 | 23.95241 | 54.98654 | 33053 ft | 382 kts | 107° |
| 2026-02-20 10:39 | 23.93948 | 55.04246 | 33043 ft | 381 kts | 107° |
| 2026-02-20 10:40 | 23.92644 | 55.09838 | 33052 ft | 381 kts | 107° |
| 2026-02-20 10:40 | 23.91324 | 55.15467 | 33054 ft | 382 kts | 107° |
| 2026-02-20 10:41 | 23.90015 | 55.21056 | 33054 ft | 382 kts | 107° |
| 2026-02-20 10:41 | 23.88679 | 55.26683 | 33062 ft | 381 kts | 107° |
| 2026-02-20 10:42 | 23.87359 | 55.32269 | 33060 ft | 382 kts | 107° |
| 2026-02-20 10:42 | 23.86038 | 55.37861 | 33062 ft | 382 kts | 107° |
| 2026-02-20 10:43 | 23.84719 | 55.43483 | 33068 ft | 384 kts | 107° |
| 2026-02-20 10:43 | 23.82705 | 55.51927 | 33076 ft | 383 kts | 107° |
| 2026-02-20 10:44 | 23.81368 | 55.57523 | 33073 ft | 383 kts | 107° |
| 2026-02-20 10:44 | 23.80027 | 55.63123 | 33086 ft | 383 kts | 107° |
| 2026-02-20 10:45 | 23.78901 | 55.67828 | 33077 ft | 383 kts | 107° |
| 2026-02-20 10:45 | 23.77347 | 55.74374 | 33077 ft | 383 kts | 107° |
| 2026-02-20 10:46 | 23.75996 | 55.79975 | 33072 ft | 383 kts | 107° |
| 2026-02-20 10:46 | 23.74868 | 55.84640 | 33074 ft | 382 kts | 107° |
| 2026-02-20 10:47 | 23.73510 | 55.90247 | 33088 ft | 382 kts | 107° |
| 2026-02-20 10:47 | 23.71929 | 55.96730 | 33087 ft | 381 kts | 107° |
| 2026-02-20 10:48 | 23.70567 | 56.02349 | 33086 ft | 383 kts | 107° |
| 2026-02-20 10:48 | 23.69223 | 56.07950 | 33098 ft | 384 kts | 107° |
| 2026-02-20 10:49 | 23.67861 | 56.13573 | 33104 ft | 384 kts | 107° |
| 2026-02-20 10:49 | 23.66716 | 56.18264 | 33105 ft | 383 kts | 107° |
| 2026-02-20 10:50 | 23.65114 | 56.24794 | 33110 ft | 382 kts | 107° |
| 2026-02-20 10:50 | 23.63980 | 56.29429 | 33122 ft | 382 kts | 107° |
| 2026-02-20 10:51 | 23.62387 | 56.35964 | 33118 ft | 381 kts | 107° |
| 2026-02-20 10:51 | 23.61041 | 56.41518 | 33133 ft | 383 kts | 107° |
| 2026-02-20 10:52 | 23.59920 | 56.46144 | 32922 ft | 373 kts | 107° |
| 2026-02-20 10:52 | 23.59029 | 56.49804 | 31907 ft | 381 kts | 107° |
| 2026-02-20 10:52 | 23.58345 | 56.52583 | 31297 ft | 382 kts | 107° |
| 2026-02-20 10:53 | 23.57879 | 56.54452 | 30152 ft | 405 kts | 107° |
| 2026-02-20 10:53 | 23.56856 | 56.58491 | 29081 ft | 406 kts | 106° |
| 2026-02-20 10:53 | 23.56356 | 56.60422 | 29106 ft | 393 kts | 107° |
| 2026-02-20 10:53 | 23.55597 | 56.63243 | 28685 ft | 388 kts | 107° |
| 2026-02-20 10:54 | 23.54585 | 56.67000 | 27762 ft | 392 kts | 108° |
| 2026-02-20 10:54 | 23.53817 | 56.69827 | 27542 ft | 380 kts | 108° |
| 2026-02-20 10:54 | 23.53321 | 56.71648 | 27260 ft | 378 kts | 108° |
| 2026-02-20 10:54 | 23.52576 | 56.74393 | 26609 ft | 380 kts | 108° |
| 2026-02-20 10:55 | 23.51827 | 56.77105 | 26287 ft | 371 kts | 108° |
| 2026-02-20 10:55 | 23.51076 | 56.79760 | 25882 ft | 367 kts | 109° |
| 2026-02-20 10:55 | 23.50037 | 56.83280 | 25302 ft | 360 kts | 109° |
| 2026-02-20 10:55 | 23.49290 | 56.85791 | 25296 ft | 342 kts | 109° |
| 2026-02-20 10:56 | 23.48518 | 56.88197 | 25250 ft | 325 kts | 111° |
| 2026-02-20 10:56 | 23.47737 | 56.90450 | 25041 ft | 316 kts | 111° |
| 2026-02-20 10:56 | 23.47222 | 56.91935 | 24685 ft | 319 kts | 111° |
| 2026-02-20 10:56 | 23.46161 | 56.94960 | 24082 ft | 317 kts | 114° |
| 2026-02-20 10:57 | 23.45185 | 56.97058 | 23835 ft | 308 kts | 124° |
| 2026-02-20 10:57 | 23.43944 | 56.98927 | 23379 ft | 307 kts | 131° |
| 2026-02-20 10:57 | 23.43029 | 57.00112 | 23069 ft | 307 kts | 133° |
| 2026-02-20 10:57 | 23.41171 | 57.02408 | 22786 ft | 295 kts | 133° |
| 2026-02-20 10:58 | 23.39830 | 57.04062 | 22436 ft | 293 kts | 133° |
| 2026-02-20 10:58 | 23.38470 | 57.05711 | 21940 ft | 295 kts | 133° |
| 2026-02-20 10:58 | 23.37561 | 57.06799 | 21740 ft | 291 kts | 132° |
| 2026-02-20 10:58 | 23.36286 | 57.08510 | 21438 ft | 287 kts | 123° |
| 2026-02-20 10:59 | 23.35063 | 57.11068 | 20919 ft | 286 kts | 109° |
| 2026-02-20 10:59 | 23.34670 | 57.12430 | 20702 ft | 284 kts | 103° |
| 2026-02-20 10:59 | 23.34237 | 57.14496 | 20396 ft | 280 kts | 98° |
| 2026-02-20 10:59 | 23.34106 | 57.17274 | 19924 ft | 277 kts | 84° |
| 2026-02-20 11:00 | 23.34407 | 57.19353 | 19597 ft | 274 kts | 77° |
| 2026-02-20 11:00 | 23.34705 | 57.20682 | 19378 ft | 272 kts | 74° |
| 2026-02-20 11:00 | 23.35385 | 57.23289 | 18885 ft | 273 kts | 73° |
| 2026-02-20 11:00 | 23.35742 | 57.24636 | 18301 ft | 287 kts | 73° |
| 2026-02-20 11:01 | 23.36507 | 57.27492 | 17260 ft | 304 kts | 73° |
| 2026-02-20 11:01 | 23.37108 | 57.29728 | 16529 ft | 312 kts | 73° |
| 2026-02-20 11:01 | 23.37715 | 57.31981 | 15866 ft | 317 kts | 73° |
| 2026-02-20 11:01 | 23.38135 | 57.33524 | 15433 ft | 319 kts | 73° |
| 2026-02-20 11:02 | 23.38979 | 57.36594 | 14598 ft | 322 kts | 73° |
| 2026-02-20 11:02 | 23.39625 | 57.38934 | 13998 ft | 322 kts | 73° |
| 2026-02-20 11:02 | 23.40269 | 57.41239 | 13424 ft | 321 kts | 73° |
| 2026-02-20 11:02 | 23.40711 | 57.42803 | 13050 ft | 320 kts | 73° |
| 2026-02-20 11:03 | 23.41358 | 57.45094 | 12510 ft | 318 kts | 73° |
| 2026-02-20 11:03 | 23.42217 | 57.48136 | 11758 ft | 316 kts | 73° |
| 2026-02-20 11:03 | 23.42851 | 57.50411 | 11232 ft | 315 kts | 73° |
| 2026-02-20 11:03 | 23.43271 | 57.51922 | 10877 ft | 314 kts | 73° |
| 2026-02-20 11:04 | 23.44176 | 57.54924 | 10153 ft | 312 kts | 71° |
| 2026-02-20 11:04 | 23.44856 | 57.57138 | 9762 ft | 308 kts | 71° |
| 2026-02-20 11:04 | 23.45303 | 57.58596 | 9773 ft | 294 kts | 71° |
| 2026-02-20 11:04 | 23.45972 | 57.60607 | 9749 ft | 277 kts | 66° |
| 2026-02-20 11:05 | 23.47022 | 57.63055 | 9669 ft | 257 kts | 59° |
| 2026-02-20 11:05 | 23.47642 | 57.64124 | 9629 ft | 247 kts | 57° |
| 2026-02-20 11:05 | 23.48563 | 57.65657 | 9581 ft | 233 kts | 56° |
| 2026-02-20 11:05 | 23.49481 | 57.67078 | 9443 ft | 225 kts | 56° |
| 2026-02-20 11:06 | 23.50694 | 57.68951 | 8877 ft | 232 kts | 56° |
| 2026-02-20 11:06 | 23.51310 | 57.69897 | 8736 ft | 228 kts | 56° |
| 2026-02-20 11:06 | 23.52219 | 57.71287 | 8549 ft | 223 kts | 56° |
| 2026-02-20 11:06 | 23.53379 | 57.73031 | 8513 ft | 205 kts | 56° |
| 2026-02-20 11:07 | 23.53935 | 57.73860 | 8399 ft | 201 kts | 56° |
| 2026-02-20 11:07 | 23.55044 | 57.75518 | 7944 ft | 204 kts | 56° |
| 2026-02-20 11:07 | 23.55588 | 57.76356 | 7784 ft | 202 kts | 58° |
| 2026-02-20 11:07 | 23.56236 | 57.77693 | 7547 ft | 198 kts | 72° |
| 2026-02-20 11:08 | 23.56590 | 57.79651 | 7136 ft | 200 kts | 85° |
| 2026-02-20 11:08 | 23.56697 | 57.80631 | 6964 ft | 198 kts | 83° |
| 2026-02-20 11:08 | 23.56861 | 57.82120 | 6693 ft | 196 kts | 83° |
| 2026-02-20 11:08 | 23.57008 | 57.83576 | 6478 ft | 189 kts | 83° |
| 2026-02-20 11:09 | 23.57201 | 57.85548 | 5643 ft | 211 kts | 83° |
| 2026-02-20 11:09 | 23.57310 | 57.86631 | 5234 ft | 219 kts | 83° |
| 2026-02-20 11:09 | 23.57490 | 57.88281 | 4683 ft | 225 kts | 83° |